Time;durP1;ratioP1;P1;durP2;ratioP2;P2;SDS_P1;SDS_P2;PMS_P1;PMS_P2;Temp;Humidity;BMP_temperature;BMP_pressure;BME280_temperature;BME280_humidity;BME280_pressure;Samples;Min_cycle;Max_cycle;Signal;HPM_P1;HPM_P2
2023/08/28 00:01:34;;;;;;;3.73;2.30;;;;;;;;;;5062074;27;87682;-58
2023/08/28 00:04:04;;;;;;;3.23;2.30;;;;;;;;;;5062309;27;88448;-58
2023/08/28 00:06:33;;;;;;;4.07;2.47;;;;;;;;;;5061918;27;88215;-58
2023/08/28 00:09:07;;;;;;;3.50;2.60;;;;;;;;;;5062653;27;88751;-58
2023/08/28 00:11:39;;;;;;;5.57;2.90;;;;;;;;;;5062371;27;87574;-58
2023/08/28 00:14:08;;;;;;;3.33;2.80;;;;;;;;;;5062392;27;89923;-59
2023/08/28 00:16:37;;;;;;;3.67;2.00;;;;;;;;;;5061538;27;87935;-58
2023/08/28 00:19:06;;;;;;;3.00;1.97;;;;;;;;;;5061735;27;89919;-58
2023/08/28 00:21:34;;;;;;;3.43;1.93;;;;;;;;;;5061550;27;87591;-58
2023/08/28 00:24:03;;;;;;;2.03;1.80;;;;;;;;;;5061981;27;89539;-58
2023/08/28 00:26:31;;;;;;;2.77;1.80;;;;;;;;;;5061727;27;88026;-58
2023/08/28 00:29:02;;;;;;;3.60;2.00;;;;;;;;;;5062000;27;88837;-58
2023/08/28 00:31:32;;;;;;;3.67;2.70;;;;;;;;;;5061958;27;87581;-58
2023/08/28 00:34:01;;;;;;;2.90;2.10;;;;;;;;;;5061642;27;88922;-58
2023/08/28 00:36:30;;;;;;;6.37;2.87;;;;;;;;;;5061963;27;89080;-58
2023/08/28 00:38:58;;;;;;;5.03;3.33;;;;;;;;;;5061918;27;87786;-58
2023/08/28 00:41:30;;;;;;;4.23;3.00;;;;;;;;;;5061507;27;88050;-58
2023/08/28 00:43:58;;;;;;;3.53;3.00;;;;;;;;;;5060071;27;87350;-58
2023/08/28 00:46:28;;;;;;;7.10;3.23;;;;;;;;;;5061842;27;88010;-58
2023/08/28 00:48:57;;;;;;;6.10;3.40;;;;;;;;;;5061596;27;88106;-58
2023/08/28 00:51:27;;;;;;;5.27;2.90;;;;;;;;;;5061687;27;87574;-58
2023/08/28 00:53:55;;;;;;;5.50;3.17;;;;;;;;;;5061449;27;89664;-59
2023/08/28 00:56:24;;;;;;;5.10;3.60;;;;;;;;;;5060935;27;88247;-58
2023/08/28 00:58:55;;;;;;;4.67;3.17;;;;;;;;;;5061761;27;87741;-58
2023/08/28 01:01:23;;;;;;;5.10;3.30;;;;;;;;;;5061835;27;87612;-58
2023/08/28 01:03:53;;;;;;;5.10;4.17;;;;;;;;;;5060693;27;88618;-58
2023/08/28 01:06:23;;;;;;;6.33;4.03;;;;;;;;;;5061544;27;90165;-58
2023/08/28 01:08:55;;;;;;;6.13;3.90;;;;;;;;;;5061634;27;89760;-58
2023/08/28 01:11:26;;;;;;;7.40;4.67;;;;;;;;;;5060971;27;87518;-58
2023/08/28 01:13:57;;;;;;;6.03;3.90;;;;;;;;;;5060776;27;89675;-58
2023/08/28 01:16:26;;;;;;;6.63;4.17;;;;;;;;;;5061502;27;88324;-58
2023/08/28 01:18:58;;;;;;;7.77;4.97;;;;;;;;;;5060390;27;88858;-59
2023/08/28 01:21:28;;;;;;;6.80;4.20;;;;;;;;;;5061627;27;87378;-58
2023/08/28 01:24:00;;;;;;;7.47;5.17;;;;;;;;;;5060885;27;88555;-59
2023/08/28 01:26:33;;;;;;;8.43;4.50;;;;;;;;;;5060990;27;89056;-58
2023/08/28 01:29:03;;;;;;;9.17;5.07;;;;;;;;;;5060348;27;87627;-58
2023/08/28 01:31:34;;;;;;;7.00;4.90;;;;;;;;;;5059922;27;87954;-58
2023/08/28 01:34:05;;;;;;;7.93;5.23;;;;;;;;;;5060124;27;89596;-58
2023/08/28 01:36:38;;;;;;;7.90;4.53;;;;;;;;;;5060341;27;89180;-58
2023/08/28 01:39:09;;;;;;;7.03;4.40;;;;;;;;;;5060444;27;88786;-58
2023/08/28 01:41:39;;;;;;;7.97;5.03;;;;;;;;;;5060751;27;87335;-58
2023/08/28 01:44:10;;;;;;;6.50;4.30;;;;;;;;;;5060138;27;89725;-58
2023/08/28 01:46:40;;;;;;;8.10;5.30;;;;;;;;;;5059794;27;87443;-58
2023/08/28 01:49:13;;;;;;;7.00;4.30;;;;;;;;;;5060437;27;87676;-58
2023/08/28 01:51:43;;;;;;;6.50;4.23;;;;;;;;;;5060837;27;87711;-59
2023/08/28 01:54:11;;;;;;;7.30;5.17;;;;;;;;;;5059679;27;89752;-58
2023/08/28 01:56:41;;;;;;;7.27;4.00;;;;;;;;;;5059205;27;89516;-58
2023/08/28 01:59:11;;;;;;;5.70;4.27;;;;;;;;;;5060470;27;88660;-58
2023/08/28 02:01:41;;;;;;;6.70;4.23;;;;;;;;;;5060607;27;87629;-59
2023/08/28 02:04:11;;;;;;;6.50;4.13;;;;;;;;;;5060378;27;89725;-58
2023/08/28 02:06:39;;;;;;;8.47;4.67;;;;;;;;;;5060603;27;87447;-58
2023/08/28 02:09:11;;;;;;;8.03;4.63;;;;;;;;;;5060082;27;87798;-58
2023/08/28 02:11:39;;;;;;;8.57;4.83;;;;;;;;;;5059971;27;87487;-58
2023/08/28 02:14:13;;;;;;;6.83;4.63;;;;;;;;;;5060447;27;89588;-58
2023/08/28 02:16:41;;;;;;;10.10;5.80;;;;;;;;;;5060106;27;89118;-58
2023/08/28 02:19:10;;;;;;;14.17;5.57;;;;;;;;;;5059924;27;87738;-59
2023/08/28 02:21:38;;;;;;;10.17;5.90;;;;;;;;;;5059856;27;87921;-58
2023/08/28 02:24:07;;;;;;;8.93;4.87;;;;;;;;;;5059410;27;87468;-58
2023/08/28 02:26:39;;;;;;;12.40;7.03;;;;;;;;;;5059918;27;88869;-58
2023/08/28 02:29:09;;;;;;;9.27;6.27;;;;;;;;;;5059499;27;89004;-58
2023/08/28 02:31:38;;;;;;;11.20;6.67;;;;;;;;;;5059563;27;87584;-58
2023/08/28 02:34:07;;;;;;;8.80;6.53;;;;;;;;;;5059978;27;88563;-58
2023/08/28 02:36:35;;;;;;;10.63;6.40;;;;;;;;;;5059865;27;87619;-58
2023/08/28 02:39:20;;;;;;;9.60;6.77;;;;;;;;;;5059523;27;88937;-58
2023/08/28 02:41:49;;;;;;;11.47;6.87;;;;;;;;;;5059441;27;87516;-58
2023/08/28 02:44:22;;;;;;;11.97;7.37;;;;;;;;;;5057235;27;88496;-58
2023/08/28 02:46:51;;;;;;;13.10;6.70;;;;;;;;;;5056258;27;87996;-58
2023/08/28 02:49:20;;;;;;;12.03;6.57;;;;;;;;;;5057633;27;88713;-58
2023/08/28 02:51:51;;;;;;;10.97;6.57;;;;;;;;;;5057613;27;87939;-58
2023/08/28 02:54:24;;;;;;;10.83;6.33;;;;;;;;;;5057112;27;88553;-58
2023/08/28 02:56:52;;;;;;;9.20;5.80;;;;;;;;;;5056116;27;88377;-58
2023/08/28 02:59:22;;;;;;;10.80;6.87;;;;;;;;;;5056277;27;88902;-58
2023/08/28 03:01:51;;;;;;;8.63;6.07;;;;;;;;;;5056460;27;87686;-58
2023/08/28 03:04:25;;;;;;;11.07;7.07;;;;;;;;;;5057276;27;89674;-58
2023/08/28 03:06:54;;;;;;;10.17;6.43;;;;;;;;;;5057395;27;89149;-58
2023/08/28 03:09:22;;;;;;;9.80;5.90;;;;;;;;;;5060164;27;89068;-58
2023/08/28 03:11:51;;;;;;;12.23;5.80;;;;;;;;;;5060350;27;88567;-58
2023/08/28 03:14:19;;;;;;;9.47;5.83;;;;;;;;;;5059686;27;89829;-58
2023/08/28 03:16:53;;;;;;;10.13;5.43;;;;;;;;;;5060107;27;89156;-58
2023/08/28 03:19:22;;;;;;;9.93;5.87;;;;;;;;;;5060488;27;88925;-58
2023/08/28 03:21:50;;;;;;;7.60;5.30;;;;;;;;;;5059780;27;87606;-58
2023/08/28 03:24:19;;;;;;;9.53;5.47;;;;;;;;;;5060512;27;89607;-58
2023/08/28 03:26:48;;;;;;;10.07;5.17;;;;;;;;;;5060101;27;89049;-58
2023/08/28 03:29:16;;;;;;;10.83;6.00;;;;;;;;;;5060122;27;87785;-58
2023/08/28 03:31:45;;;;;;;7.43;5.23;;;;;;;;;;5060364;27;87879;-58
2023/08/28 03:34:19;;;;;;;7.63;4.83;;;;;;;;;;5059241;27;90080;-58
2023/08/28 03:36:48;;;;;;;8.40;4.97;;;;;;;;;;5059220;27;89837;-58
2023/08/28 03:39:16;;;;;;;7.90;5.00;;;;;;;;;;5059246;27;88726;-58
2023/08/28 03:41:44;;;;;;;5.43;4.33;;;;;;;;;;5059963;27;87682;-58
2023/08/28 03:44:13;;;;;;;6.33;4.43;;;;;;;;;;5058540;27;88520;-58
2023/08/28 03:46:42;;;;;;;7.90;4.40;;;;;;;;;;5059646;27;89018;-59
2023/08/28 03:49:12;;;;;;;7.70;5.10;;;;;;;;;;5060087;27;88135;-59
2023/08/28 03:51:42;;;;;;;8.23;4.43;;;;;;;;;;5058787;27;87524;-59
2023/08/28 03:54:12;;;;;;;5.60;4.03;;;;;;;;;;5059073;27;89644;-59
2023/08/28 03:56:43;;;;;;;7.47;3.93;;;;;;;;;;5058355;27;89131;-58
2023/08/28 03:59:11;;;;;;;7.67;3.80;;;;;;;;;;5059593;27;88001;-59
2023/08/28 04:01:40;;;;;;;5.17;3.43;;;;;;;;;;5059228;27;87855;-59
2023/08/28 04:06:54;;;;;;;5.07;3.53;;;;;;;;;;5059124;27;87528;-59
2023/08/28 04:09:23;;;;;;;8.03;4.27;;;;;;;;;;5059282;27;89750;-59
2023/08/28 04:12:00;;;;;;;4.10;3.03;;;;;;;;;;5058625;27;87594;-59
2023/08/28 04:14:32;;;;;;;4.57;3.37;;;;;;;;;;5056963;27;89791;-59
2023/08/28 04:17:02;;;;;;;6.23;2.70;;;;;;;;;;5056679;27;88111;-59
2023/08/28 04:19:31;;;;;;;3.63;2.57;;;;;;;;;;5061897;27;88866;-59
2023/08/28 04:22:01;;;;;;;4.70;3.13;;;;;;;;;;5062241;27;87624;-59
2023/08/28 04:24:30;;;;;;;5.00;2.97;;;;;;;;;;5061942;27;88570;-59
2023/08/28 04:26:58;;;;;;;5.00;2.47;;;;;;;;;;5060906;27;87959;-59
2023/08/28 04:29:27;;;;;;;3.87;2.30;;;;;;;;;;5061392;27;88652;-59
2023/08/28 04:31:58;;;;;;;4.40;2.90;;;;;;;;;;5061804;27;87442;-59
2023/08/28 04:34:28;;;;;;;3.17;2.50;;;;;;;;;;5061561;27;87401;-59
2023/08/28 04:36:59;;;;;;;2.90;2.57;;;;;;;;;;5061676;27;89210;-59
2023/08/28 04:39:29;;;;;;;3.83;2.53;;;;;;;;;;5060923;27;87323;-59
2023/08/28 04:41:58;;;;;;;4.73;3.13;;;;;;;;;;5061253;27;87365;-59
2023/08/28 04:44:26;;;;;;;3.97;2.60;;;;;;;;;;5061822;27;88753;-59
2023/08/28 04:46:55;;;;;;;6.13;2.67;;;;;;;;;;5060941;27;89168;-59
2023/08/28 04:49:24;;;;;;;4.00;2.53;;;;;;;;;;5061228;27;88932;-59
2023/08/28 04:51:53;;;;;;;3.97;2.83;;;;;;;;;;5061701;27;87823;-59
2023/08/28 04:54:22;;;;;;;3.70;3.17;;;;;;;;;;5061819;27;89575;-59
2023/08/28 04:56:52;;;;;;;4.20;3.00;;;;;;;;;;5061291;27;89158;-59
2023/08/28 04:59:20;;;;;;;5.60;2.77;;;;;;;;;;5061895;27;87647;-59
2023/08/28 05:01:50;;;;;;;5.87;3.07;;;;;;;;;;5061464;27;87655;-59
2023/08/28 05:04:18;;;;;;;5.30;3.47;;;;;;;;;;5061034;27;88551;-59
2023/08/28 05:06:47;;;;;;;3.93;2.67;;;;;;;;;;5061278;27;88065;-59
2023/08/28 05:09:15;;;;;;;4.97;2.67;;;;;;;;;;5061477;27;88607;-59
2023/08/28 05:11:44;;;;;;;5.60;3.03;;;;;;;;;;5060987;27;87623;-59
2023/08/28 05:14:14;;;;;;;5.07;2.80;;;;;;;;;;5060922;27;90005;-59
2023/08/28 05:16:45;;;;;;;5.60;3.07;;;;;;;;;;5060427;27;90038;-59
2023/08/28 05:19:15;;;;;;;3.40;3.10;;;;;;;;;;5060438;27;89717;-59
2023/08/28 05:21:47;;;;;;;3.33;2.70;;;;;;;;;;5060978;27;87628;-59
2023/08/28 05:24:16;;;;;;;4.50;2.90;;;;;;;;;;5060397;27;88533;-59
2023/08/28 05:26:46;;;;;;;4.13;3.00;;;;;;;;;;5060982;27;88080;-59
2023/08/28 05:29:19;;;;;;;4.43;2.77;;;;;;;;;;5060836;27;88780;-59
2023/08/28 05:31:48;;;;;;;4.40;2.67;;;;;;;;;;5060131;27;87548;-59
2023/08/28 05:34:16;;;;;;;2.97;2.40;;;;;;;;;;5060839;27;88749;-59
2023/08/28 05:36:45;;;;;;;4.10;2.23;;;;;;;;;;5060952;27;89288;-59
2023/08/28 05:39:13;;;;;;;3.80;2.20;;;;;;;;;;5060891;27;87692;-59
2023/08/28 05:41:42;;;;;;;3.90;2.73;;;;;;;;;;5060553;27;88015;-59
2023/08/28 05:44:11;;;;;;;4.03;2.87;;;;;;;;;;5059773;27;89603;-59
2023/08/28 05:46:42;;;;;;;4.00;2.87;;;;;;;;;;5060322;27;89132;-59
2023/08/28 05:49:11;;;;;;;4.40;2.70;;;;;;;;;;5059861;27;88875;-59
2023/08/28 05:51:39;;;;;;;4.20;2.43;;;;;;;;;;5060697;27;87431;-58
2023/08/28 05:54:11;;;;;;;4.30;2.50;;;;;;;;;;5060453;27;89891;-59
2023/08/28 05:56:39;;;;;;;5.03;2.63;;;;;;;;;;5059895;27;88074;-58
2023/08/28 05:59:08;;;;;;;3.77;3.00;;;;;;;;;;5059948;27;87744;-59
2023/08/28 06:01:36;;;;;;;4.07;2.67;;;;;;;;;;5060313;27;87623;-59
2023/08/28 06:04:07;;;;;;;4.07;2.30;;;;;;;;;;5060533;27;88646;-59
2023/08/28 06:06:38;;;;;;;3.77;2.60;;;;;;;;;;5059888;27;89265;-59
2023/08/28 06:09:10;;;;;;;3.50;2.80;;;;;;;;;;5059627;27;88725;-59
2023/08/28 06:11:38;;;;;;;3.73;2.40;;;;;;;;;;5060348;27;89433;-58
2023/08/28 06:14:07;;;;;;;2.33;1.90;;;;;;;;;;5060120;27;88530;-58
2023/08/28 06:16:37;;;;;;;3.27;2.23;;;;;;;;;;5059672;27;89226;-59
2023/08/28 06:19:07;;;;;;;3.23;2.40;;;;;;;;;;5059597;27;88910;-58
2023/08/28 06:21:35;;;;;;;2.10;1.90;;;;;;;;;;5059445;27;87448;-58
2023/08/28 06:24:04;;;;;;;3.70;2.23;;;;;;;;;;5060175;27;87493;-59
2023/08/28 06:26:32;;;;;;;2.80;2.13;;;;;;;;;;5059420;27;88020;-59
2023/08/28 06:29:02;;;;;;;2.67;2.20;;;;;;;;;;5060434;27;87694;-59
2023/08/28 06:31:31;;;;;;;2.83;1.80;;;;;;;;;;5060649;27;87907;-59
2023/08/28 06:33:59;;;;;;;2.20;2.00;;;;;;;;;;5059686;27;88433;-59
2023/08/28 06:36:30;;;;;;;2.10;1.90;;;;;;;;;;5059571;27;89155;-59
2023/08/28 06:38:59;;;;;;;2.40;2.00;;;;;;;;;;5059716;27;88823;-59
2023/08/28 06:41:27;;;;;;;2.07;1.67;;;;;;;;;;5061589;27;87620;-59
2023/08/28 06:43:56;;;;;;;2.30;1.80;;;;;;;;;;5062608;27;88484;-59
2023/08/28 06:46:24;;;;;;;3.73;1.67;;;;;;;;;;5063217;27;89062;-59
2023/08/28 06:48:53;;;;;;;3.43;2.10;;;;;;;;;;5063995;27;88913;-59
2023/08/28 06:51:21;;;;;;;2.43;1.80;;;;;;;;;;5063728;27;87244;-59
2023/08/28 06:53:53;;;;;;;3.13;2.03;;;;;;;;;;5063020;27;89665;-59
2023/08/28 06:56:24;;;;;;;3.40;2.00;;;;;;;;;;5061890;27;89773;-58
2023/08/28 06:58:52;;;;;;;2.37;1.80;;;;;;;;;;5063262;27;87212;-59
2023/08/28 07:01:21;;;;;;;2.30;1.67;;;;;;;;;;5063273;27;87902;-59
2023/08/28 07:03:49;;;;;;;6.60;2.27;;;;;;;;;;5063461;27;88675;-59
2023/08/28 07:06:18;;;;;;;2.27;1.93;;;;;;;;;;5062891;27;87886;-59
2023/08/28 07:08:46;;;;;;;2.90;1.73;;;;;;;;;;5063198;27;87804;-59
2023/08/28 07:11:16;;;;;;;2.13;1.50;;;;;;;;;;5062944;27;87495;-59
2023/08/28 07:13:44;;;;;;;1.60;1.33;;;;;;;;;;5062317;27;89648;-59
2023/08/28 07:16:13;;;;;;;2.13;1.53;;;;;;;;;;5062692;27;88094;-59
2023/08/28 07:18:43;;;;;;;3.33;2.03;;;;;;;;;;5062420;27;87703;-59
2023/08/28 07:21:11;;;;;;;2.30;1.53;;;;;;;;;;5062910;27;87756;-59
2023/08/28 07:23:40;;;;;;;2.50;1.93;;;;;;;;;;5062899;27;89649;-59
2023/08/28 07:26:08;;;;;;;2.87;1.40;;;;;;;;;;5062755;27;87935;-59
2023/08/28 07:28:39;;;;;;;2.37;1.40;;;;;;;;;;5062467;27;88755;-59
2023/08/28 07:31:10;;;;;;;1.60;1.50;;;;;;;;;;5062524;27;87524;-59
2023/08/28 07:33:38;;;;;;;3.30;2.00;;;;;;;;;;5062115;27;89719;-59
2023/08/28 07:36:09;;;;;;;2.13;1.57;;;;;;;;;;5062562;27;88046;-59
2023/08/28 07:38:37;;;;;;;2.50;1.90;;;;;;;;;;5062872;27;87913;-59
2023/08/28 07:41:06;;;;;;;1.50;1.40;;;;;;;;;;5062781;27;87869;-59
2023/08/28 07:43:37;;;;;;;3.70;1.17;;;;;;;;;;5061116;27;88592;-59
2023/08/28 07:46:10;;;;;;;1.73;1.40;;;;;;;;;;5061364;27;88634;-58
2023/08/28 07:48:38;;;;;;;1.43;1.33;;;;;;;;;;5062410;27;89888;-59
2023/08/28 07:51:07;;;;;;;2.87;1.60;;;;;;;;;;5063173;27;87664;-59
2023/08/28 07:53:39;;;;;;;1.10;1.00;;;;;;;;;;5062252;27;87224;-59
2023/08/28 07:56:10;;;;;;;1.33;1.13;;;;;;;;;;5062360;27;89212;-59
2023/08/28 07:58:40;;;;;;;1.97;1.37;;;;;;;;;;5062447;27;88725;-58
2023/08/28 08:01:12;;;;;;;2.10;1.27;;;;;;;;;;5062187;27;88063;-58
2023/08/28 08:03:40;;;;;;;1.43;1.33;;;;;;;;;;5061884;27;89686;-58
2023/08/28 08:06:09;;;;;;;0.87;0.83;;;;;;;;;;5062695;27;89130;-59
2023/08/28 08:08:41;;;;;;;1.57;1.47;;;;;;;;;;5062799;27;87759;-59
2023/08/28 08:11:09;;;;;;;3.37;1.20;;;;;;;;;;5061543;27;87777;-59
2023/08/28 08:13:38;;;;;;;2.20;1.57;;;;;;;;;;5062064;27;89686;-59
2023/08/28 08:16:06;;;;;;;2.30;1.10;;;;;;;;;;5061500;27;88034;-58
2023/08/28 08:18:38;;;;;;;2.47;1.40;;;;;;;;;;5061958;27;88853;-59
2023/08/28 08:21:08;;;;;;;1.30;1.20;;;;;;;;;;5062046;27;87560;-58
2023/08/28 08:23:36;;;;;;;1.90;1.23;;;;;;;;;;5061846;27;89629;-59
2023/08/28 08:26:05;;;;;;;1.50;1.10;;;;;;;;;;5062342;27;89122;-58
2023/08/28 08:28:35;;;;;;;2.03;1.00;;;;;;;;;;5062451;27;87307;-58
2023/08/28 08:31:04;;;;;;;1.50;1.00;;;;;;;;;;5062297;27;87691;-59
2023/08/28 08:33:32;;;;;;;0.80;0.77;;;;;;;;;;5061255;27;89923;-59
2023/08/28 08:36:04;;;;;;;1.20;1.10;;;;;;;;;;5061408;27;90015;-59
2023/08/28 08:38:33;;;;;;;0.90;0.90;;;;;;;;;;5061437;27;88437;-59
2023/08/28 08:41:02;;;;;;;2.43;1.27;;;;;;;;;;5061787;27;87510;-58
2023/08/28 08:43:30;;;;;;;1.10;1.00;;;;;;;;;;5060787;27;88509;-59
2023/08/28 08:46:00;;;;;;;2.20;1.43;;;;;;;;;;5061548;27;89105;-58
2023/08/28 08:48:33;;;;;;;1.20;1.10;;;;;;;;;;5061825;27;87891;-58
2023/08/28 08:51:04;;;;;;;1.40;0.93;;;;;;;;;;5061964;27;87934;-58
2023/08/28 08:53:39;;;;;;;1.90;1.10;;;;;;;;;;5061455;27;88622;-58
2023/08/28 08:56:07;;;;;;;1.50;1.10;;;;;;;;;;5061250;27;87705;-58
2023/08/28 08:58:36;;;;;;;1.33;1.20;;;;;;;;;;5061371;27;88886;-59
2023/08/28 09:01:05;;;;;;;1.30;1.10;;;;;;;;;;5061232;27;87745;-59
2023/08/28 09:03:34;;;;;;;1.70;1.30;;;;;;;;;;5061074;27;89844;-58
2023/08/28 09:06:06;;;;;;;1.23;1.13;;;;;;;;;;5059684;27;87450;-59
2023/08/28 09:08:35;;;;;;;2.70;1.63;;;;;;;;;;5062091;27;87255;-58
2023/08/28 09:11:04;;;;;;;1.60;1.13;;;;;;;;;;5061545;27;87440;-58
2023/08/28 09:13:34;;;;;;;1.20;1.10;;;;;;;;;;5060506;27;88540;-58
2023/08/28 09:16:05;;;;;;;2.30;1.60;;;;;;;;;;5060613;27;89135;-58
2023/08/28 09:18:34;;;;;;;1.53;1.37;;;;;;;;;;5061262;27;88818;-58
2023/08/28 09:21:12;;;;;;;1.23;1.10;;;;;;;;;;5061536;27;87493;-58
2023/08/28 09:23:45;;;;;;;2.97;1.60;;;;;;;;;;5060557;27;88866;-58
2023/08/28 09:26:20;;;;;;;2.63;1.67;;;;;;;;;;5060373;27;89837;-58
2023/08/28 09:28:59;;;;;;;2.63;2.00;;;;;;;;;;5060656;27;89819;-58
2023/08/28 09:31:33;;;;;;;3.27;2.37;;;;;;;;;;5060646;27;87581;-58
2023/08/28 09:34:03;;;;;;;2.87;2.17;;;;;;;;;;5061363;27;88577;-59
2023/08/28 09:36:40;;;;;;;2.03;1.60;;;;;;;;;;5060999;27;89129;-58
2023/08/28 09:39:18;;;;;;;3.00;1.90;;;;;;;;;;5060490;27;89049;-58
2023/08/28 09:41:50;;;;;;;2.23;1.87;;;;;;;;;;5060527;27;87535;-58
2023/08/28 09:44:20;;;;;;;4.83;2.80;;;;;;;;;;5060117;27;89716;-58
2023/08/28 09:46:49;;;;;;;4.70;2.60;;;;;;;;;;5060402;27;89136;-58
2023/08/28 09:49:21;;;;;;;3.53;2.90;;;;;;;;;;5060737;27;88651;-58
2023/08/28 09:51:52;;;;;;;4.37;3.23;;;;;;;;;;5060092;27;87966;-59
2023/08/28 09:54:21;;;;;;;6.10;3.90;;;;;;;;;;5059922;27;89612;-58
2023/08/28 09:56:52;;;;;;;3.60;2.90;;;;;;;;;;5059889;27;88942;-58
2023/08/28 09:59:21;;;;;;;5.07;3.50;;;;;;;;;;5059938;27;88787;-58
2023/08/28 10:01:50;;;;;;;5.97;3.53;;;;;;;;;;5060833;27;87636;-58
2023/08/28 10:04:22;;;;;;;6.60;3.50;;;;;;;;;;5060882;27;89437;-58
2023/08/28 10:06:53;;;;;;;6.40;3.30;;;;;;;;;;5060843;27;89402;-59
2023/08/28 10:09:24;;;;;;;4.60;3.30;;;;;;;;;;5061164;27;89145;-58
2023/08/28 10:11:53;;;;;;;5.13;3.80;;;;;;;;;;5060881;27;87266;-58
2023/08/28 10:14:23;;;;;;;6.50;3.77;;;;;;;;;;5060419;27;89754;-58
2023/08/28 10:16:53;;;;;;;4.53;2.97;;;;;;;;;;5061487;27;90198;-58
2023/08/28 10:19:25;;;;;;;4.77;3.60;;;;;;;;;;5063926;27;90035;-58
2023/08/28 10:21:56;;;;;;;3.83;3.30;;;;;;;;;;5064028;27;87651;-59
2023/08/28 10:24:24;;;;;;;5.30;3.40;;;;;;;;;;5063677;27;89625;-58
2023/08/28 10:26:53;;;;;;;3.77;3.13;;;;;;;;;;5063834;27;87972;-58
2023/08/28 10:29:22;;;;;;;4.23;3.03;;;;;;;;;;5063735;27;87719;-58
2023/08/28 10:31:51;;;;;;;4.87;3.63;;;;;;;;;;5064004;27;87708;-58
2023/08/28 10:34:20;;;;;;;5.37;3.40;;;;;;;;;;5064250;27;88796;-58
2023/08/28 10:36:48;;;;;;;3.70;3.10;;;;;;;;;;5063873;27;88077;-59
2023/08/28 10:39:21;;;;;;;6.30;3.80;;;;;;;;;;5062485;27;88425;-58
2023/08/28 10:41:50;;;;;;;4.00;3.50;;;;;;;;;;5062946;27;87747;-58
2023/08/28 10:44:19;;;;;;;5.30;3.10;;;;;;;;;;5062943;27;89886;-58
2023/08/28 10:46:48;;;;;;;4.50;3.90;;;;;;;;;;5062908;27;89138;-58
2023/08/28 10:49:18;;;;;;;4.73;3.40;;;;;;;;;;5063266;27;88914;-58
2023/08/28 10:51:47;;;;;;;5.00;4.07;;;;;;;;;;5063068;27;87565;-58
2023/08/28 10:54:17;;;;;;;4.43;3.03;;;;;;;;;;5063185;27;88504;-58
2023/08/28 10:56:55;;;;;;;7.97;4.20;;;;;;;;;;5062659;27;88125;-58
2023/08/28 10:59:26;;;;;;;7.67;4.67;;;;;;;;;;5063347;27;88002;-58
2023/08/28 11:01:55;;;;;;;5.27;4.13;;;;;;;;;;5063552;27;87588;-58
2023/08/28 11:04:24;;;;;;;8.50;4.77;;;;;;;;;;5063033;27;89660;-58
2023/08/28 11:06:54;;;;;;;8.50;4.23;;;;;;;;;;5062630;27;89921;-58
2023/08/28 11:09:45;;;;;;;7.27;4.20;;;;;;;;;;5063421;27;89822;-58
2023/08/28 11:12:30;;;;;;;10.03;5.17;;;;;;;;;;5062884;27;87533;-59
2023/08/28 11:15:00;;;;;;;8.63;5.20;;;;;;;;;;5063208;27;89811;-58
2023/08/28 11:17:28;;;;;;;6.60;5.17;;;;;;;;;;5063281;27;88035;-58
2023/08/28 11:20:08;;;;;;;9.63;5.23;;;;;;;;;;5062222;27;87622;-58
2023/08/28 11:22:38;;;;;;;7.53;5.87;;;;;;;;;;5062495;27;87525;-58
2023/08/28 11:25:09;;;;;;;8.00;5.17;;;;;;;;;;5062580;27;89402;-58
2023/08/28 11:27:46;;;;;;;9.50;6.40;;;;;;;;;;5061713;27;87915;-59
2023/08/28 11:30:19;;;;;;;11.97;6.47;;;;;;;;;;5062944;27;87558;-59
2023/08/28 11:32:49;;;;;;;10.03;6.33;;;;;;;;;;5062381;27;87958;-58
2023/08/28 11:35:18;;;;;;;12.70;7.43;;;;;;;;;;5062994;27;89605;-58
2023/08/28 11:37:48;;;;;;;12.37;7.03;;;;;;;;;;5062867;27;89428;-58
2023/08/28 11:40:18;;;;;;;10.90;6.93;;;;;;;;;;5062877;27;88669;-58
2023/08/28 11:42:48;;;;;;;7.77;6.33;;;;;;;;;;5062220;27;87627;-58
2023/08/28 11:45:22;;;;;;;11.83;7.40;;;;;;;;;;5061663;27;88522;-58
2023/08/28 11:47:55;;;;;;;11.03;5.87;;;;;;;;;;5062225;27;87964;-58
2023/08/28 11:50:23;;;;;;;10.30;6.70;;;;;;;;;;5062735;27;88981;-58
2023/08/28 11:52:54;;;;;;;10.37;6.30;;;;;;;;;;5062726;27;87655;-58
2023/08/28 11:55:23;;;;;;;7.80;5.67;;;;;;;;;;5061781;27;88703;-59
2023/08/28 11:57:53;;;;;;;9.90;5.87;;;;;;;;;;5061227;27;90112;-58
2023/08/28 12:00:22;;;;;;;9.40;6.50;;;;;;;;;;5062087;27;89792;-58
2023/08/28 12:02:51;;;;;;;8.47;5.23;;;;;;;;;;5062571;27;87734;-58
2023/08/28 12:05:19;;;;;;;9.33;5.87;;;;;;;;;;5061926;27;89532;-58
2023/08/28 12:07:50;;;;;;;10.77;6.07;;;;;;;;;;5062006;27;88195;-58
2023/08/28 12:10:19;;;;;;;9.87;4.97;;;;;;;;;;5061655;27;88752;-59
2023/08/28 12:12:48;;;;;;;9.03;5.13;;;;;;;;;;5062658;27;87453;-58
2023/08/28 12:15:21;;;;;;;7.87;4.53;;;;;;;;;;5061443;27;88357;-58
2023/08/28 12:17:49;;;;;;;6.97;4.57;;;;;;;;;;5061842;27;88975;-59
2023/08/28 12:20:19;;;;;;;7.50;5.10;;;;;;;;;;5061342;27;87327;-58
2023/08/28 12:23:10;;;;;;;6.63;5.23;;;;;;;;;;5062273;27;87842;-59
2023/08/28 12:25:43;;;;;;;7.53;5.17;;;;;;;;;;5061542;27;88572;-58
2023/08/28 12:28:13;;;;;;;7.50;4.60;;;;;;;;;;5061671;27;89238;-58
2023/08/28 12:30:43;;;;;;;5.77;4.30;;;;;;;;;;5061469;27;88871;-58
2023/08/28 12:33:12;;;;;;;8.40;3.90;;;;;;;;;;5062652;27;87592;-59
2023/08/28 12:35:41;;;;;;;7.67;5.20;;;;;;;;;;5061854;27;87555;-58
2023/08/28 12:38:10;;;;;;;7.27;4.47;;;;;;;;;;5061858;27;88108;-58
2023/08/28 12:40:42;;;;;;;6.43;4.60;;;;;;;;;;5061952;27;88802;-58
2023/08/28 12:43:11;;;;;;;5.60;3.73;;;;;;;;;;5061605;27;87541;-59
2023/08/28 12:45:40;;;;;;;5.90;3.87;;;;;;;;;;5061996;27;89901;-58
2023/08/28 12:48:12;;;;;;;6.73;3.87;;;;;;;;;;5060725;27;87958;-58
2023/08/28 12:50:44;;;;;;;6.80;3.90;;;;;;;;;;5061072;27;88550;-59
2023/08/28 12:53:13;;;;;;;6.17;3.63;;;;;;;;;;5061775;27;87373;-58
2023/08/28 12:55:42;;;;;;;5.53;3.73;;;;;;;;;;5061438;27;88945;-58
2023/08/28 12:58:14;;;;;;;4.30;3.00;;;;;;;;;;5060814;27;89113;-58
2023/08/28 13:00:45;;;;;;;3.37;3.07;;;;;;;;;;5061425;27;88837;-58
2023/08/28 13:03:15;;;;;;;3.90;3.40;;;;;;;;;;5062007;27;87588;-58
2023/08/28 13:05:44;;;;;;;5.60;3.27;;;;;;;;;;5061725;27;88875;-58
2023/08/28 13:08:14;;;;;;;4.70;3.47;;;;;;;;;;5060542;27;89162;-58
2023/08/28 13:10:42;;;;;;;4.30;3.20;;;;;;;;;;5061261;27;87450;-59
2023/08/28 13:13:11;;;;;;;3.80;2.77;;;;;;;;;;5060260;27;88005;-58
2023/08/28 13:15:39;;;;;;;3.40;2.87;;;;;;;;;;5061080;27;88619;-58
2023/08/28 13:18:08;;;;;;;3.80;3.10;;;;;;;;;;5061166;27;87510;-58
2023/08/28 13:20:38;;;;;;;4.87;3.43;;;;;;;;;;5060627;27;88848;-58
2023/08/28 13:23:07;;;;;;;4.23;2.60;;;;;;;;;;5060869;27;87532;-58
2023/08/28 13:25:35;;;;;;;3.40;3.10;;;;;;;;;;5060805;27;88958;-58
2023/08/28 13:28:03;;;;;;;4.00;2.47;;;;;;;;;;5060251;27;88202;-58
2023/08/28 13:30:33;;;;;;;2.33;2.10;;;;;;;;;;5060803;27;87522;-58
2023/08/28 13:33:04;;;;;;;2.87;2.47;;;;;;;;;;5061082;27;87184;-58
2023/08/28 13:35:33;;;;;;;2.93;2.40;;;;;;;;;;5060611;27;89366;-59
2023/08/28 13:38:04;;;;;;;4.37;2.97;;;;;;;;;;5059938;27;88910;-58
2023/08/28 13:40:35;;;;;;;2.80;2.33;;;;;;;;;;5060564;27;88697;-58
2023/08/28 13:43:03;;;;;;;4.60;2.33;;;;;;;;;;5060568;27;87707;-58
2023/08/28 13:45:33;;;;;;;2.77;2.10;;;;;;;;;;5060701;27;89717;-58
2023/08/28 13:48:02;;;;;;;2.77;1.90;;;;;;;;;;5060007;27;88936;-58
2023/08/28 13:50:31;;;;;;;2.90;2.07;;;;;;;;;;5060078;27;88831;-58
2023/08/28 13:53:01;;;;;;;3.60;1.97;;;;;;;;;;5060599;27;87568;-58
2023/08/28 13:55:34;;;;;;;1.97;1.83;;;;;;;;;;5061336;27;87235;-58
2023/08/28 13:58:04;;;;;;;3.37;2.37;;;;;;;;;;5060662;27;88921;-58
2023/08/28 14:00:33;;;;;;;2.93;2.00;;;;;;;;;;5061082;27;87390;-58
2023/08/28 14:03:01;;;;;;;1.87;1.70;;;;;;;;;;5060535;27;87821;-58
2023/08/28 14:05:31;;;;;;;1.70;1.60;;;;;;;;;;5059867;27;88563;-58
2023/08/28 14:08:00;;;;;;;2.40;1.93;;;;;;;;;;5060341;27;88615;-58
2023/08/28 14:10:29;;;;;;;1.77;1.43;;;;;;;;;;5060760;27;87739;-59
2023/08/28 14:13:02;;;;;;;1.80;1.70;;;;;;;;;;5060613;27;87703;-58
2023/08/28 14:15:32;;;;;;;1.97;1.60;;;;;;;;;;5060469;27;89785;-58
2023/08/28 14:18:03;;;;;;;2.00;1.77;;;;;;;;;;5060350;27;87971;-58
2023/08/28 14:20:34;;;;;;;2.50;1.60;;;;;;;;;;5059756;27;89119;-58
2023/08/28 14:23:03;;;;;;;1.63;1.53;;;;;;;;;;5060437;27;87242;-58
2023/08/28 14:25:32;;;;;;;1.60;1.50;;;;;;;;;;5059905;27;88591;-58
2023/08/28 14:28:04;;;;;;;2.77;1.77;;;;;;;;;;5060010;27;89950;-58
2023/08/28 14:30:35;;;;;;;2.63;1.40;;;;;;;;;;5060369;27;87414;-58
2023/08/28 14:33:03;;;;;;;2.30;1.50;;;;;;;;;;5060668;27;87502;-58
2023/08/28 14:35:33;;;;;;;2.37;2.00;;;;;;;;;;5059818;27;87512;-58
2023/08/28 14:38:04;;;;;;;1.97;1.50;;;;;;;;;;5060040;27;87428;-58
2023/08/28 14:40:36;;;;;;;1.70;1.50;;;;;;;;;;5059441;27;88645;-58
2023/08/28 14:43:16;;;;;;;1.17;1.07;;;;;;;;;;5059997;27;87609;-58
2023/08/28 14:45:46;;;;;;;1.70;1.60;;;;;;;;;;5053048;27;87424;-58
2023/08/28 14:48:18;;;;;;;2.00;1.67;;;;;;;;;;5036937;27;87760;-58
2023/08/28 14:50:50;;;;;;;1.40;1.30;;;;;;;;;;5035808;27;88984;-58
2023/08/28 14:53:22;;;;;;;2.07;1.67;;;;;;;;;;5036497;27;88351;-58
2023/08/28 14:55:52;;;;;;;1.70;1.30;;;;;;;;;;5036269;27;89804;-58
2023/08/28 14:58:23;;;;;;;1.60;1.20;;;;;;;;;;5036066;27;88069;-58
2023/08/28 15:00:53;;;;;;;3.33;1.80;;;;;;;;;;5036703;27;88444;-58
2023/08/28 15:03:22;;;;;;;1.60;1.50;;;;;;;;;;5039859;27;87993;-58